createdAt,value
2018-12-22T00:00:20.781Z,5.70
2018-12-22T00:02:51.291Z,6.83
2018-12-22T00:05:20.943Z,7.47
2018-12-22T00:07:49.985Z,5.50
2018-12-22T00:10:20.421Z,8.17
2018-12-22T00:12:50.138Z,5.13
2018-12-22T00:15:19.536Z,7.93
2018-12-22T00:17:49.203Z,7.27
2018-12-22T00:20:18.608Z,7.97
2018-12-22T00:22:47.976Z,9.83
2018-12-22T00:25:17.447Z,8.03
2018-12-22T00:27:46.993Z,8.07
2018-12-22T00:30:16.870Z,6.80
2018-12-22T00:32:46.136Z,8.53
2018-12-22T00:35:15.696Z,9.07
2018-12-22T00:37:45.333Z,5.00
2018-12-22T00:40:14.771Z,4.83
2018-12-22T00:42:44.315Z,7.07
2018-12-22T00:45:13.906Z,5.07
2018-12-22T00:47:43.542Z,7.40
2018-12-22T00:50:14.424Z,7.50
2018-12-22T00:52:44.891Z,8.50
2018-12-22T00:55:20.662Z,7.30
2018-12-22T00:58:04.465Z,7.87
2018-12-22T01:00:36.207Z,7.00
2018-12-22T01:03:10.729Z,6.00
2018-12-22T01:05:44.623Z,6.53
2018-12-22T01:08:17.736Z,4.93
2018-12-22T01:10:47.494Z,7.10
2018-12-22T01:13:19.056Z,7.63
2018-12-22T01:15:48.721Z,8.57
2018-12-22T01:18:18.997Z,7.20
2018-12-22T01:20:48.383Z,5.97
2018-12-22T01:23:17.964Z,7.63
2018-12-22T01:25:47.425Z,5.27
2018-12-22T01:28:17.765Z,4.40
2018-12-22T01:30:47.355Z,8.87
2018-12-22T01:33:17.746Z,4.53
2018-12-22T01:35:47.460Z,6.70
2018-12-22T01:38:16.960Z,4.60
2018-12-22T01:40:48.960Z,8.13
2018-12-22T01:43:18.272Z,8.13
2018-12-22T01:45:47.562Z,7.23
2018-12-22T01:48:17.194Z,8.40
2018-12-22T01:50:46.674Z,6.87
2018-12-22T01:53:17.013Z,8.13
2018-12-22T01:55:46.552Z,5.30
2018-12-22T01:58:16.178Z,6.13
2018-12-22T02:00:45.961Z,6.73
2018-12-22T02:03:17.787Z,5.80
2018-12-22T02:05:47.373Z,4.63
2018-12-22T02:08:16.744Z,7.13
2018-12-22T02:10:46.523Z,5.73
2018-12-22T02:13:16.044Z,4.80
2018-12-22T02:15:45.339Z,6.40
2018-12-22T02:18:14.715Z,4.73
2018-12-22T02:20:44.359Z,6.70
2018-12-22T02:23:14.149Z,9.20
2018-12-22T02:25:44.935Z,8.57
2018-12-22T02:28:14.080Z,12.50
2018-12-22T02:30:44.001Z,16.40
2018-12-22T02:33:13.626Z,10.73
2018-12-22T02:35:44.054Z,11.27
2018-12-22T02:38:14.645Z,6.83
2018-12-22T02:40:44.563Z,11.17
2018-12-22T02:43:13.841Z,4.97
2018-12-22T02:45:43.802Z,7.83
2018-12-22T02:48:13.449Z,14.53
2018-12-22T02:50:43.506Z,12.60
2018-12-22T02:53:13.066Z,9.90
2018-12-22T02:55:44.349Z,10.27
2018-12-22T02:58:14.166Z,7.93
2018-12-22T03:00:43.801Z,8.77
2018-12-22T03:03:13.243Z,17.73
2018-12-22T03:05:42.757Z,26.33
2018-12-22T03:08:11.999Z,12.00
2018-12-22T03:10:41.568Z,11.30
2018-12-22T03:13:10.971Z,9.87
2018-12-22T03:15:40.404Z,9.23
2018-12-22T03:18:09.973Z,10.60
2018-12-22T03:20:40.366Z,11.97
2018-12-22T03:23:12.677Z,14.40
2018-12-22T03:25:42.197Z,10.53
2018-12-22T03:28:11.437Z,19.77
2018-12-22T03:30:42.196Z,9.10
2018-12-22T03:33:11.828Z,10.10
2018-12-22T03:35:44.361Z,9.17
2018-12-22T03:38:14.815Z,11.27
2018-12-22T03:40:44.995Z,11.17
2018-12-22T03:43:14.611Z,17.70
2018-12-22T03:45:43.976Z,16.40
2018-12-22T03:48:13.578Z,14.87
2018-12-22T03:50:43.091Z,39.03
2018-12-22T03:53:12.362Z,30.30
2018-12-22T03:55:41.778Z,20.37
2018-12-22T03:58:12.800Z,12.83
2018-12-22T04:00:42.136Z,14.40
2018-12-22T04:03:11.978Z,12.67
2018-12-22T04:05:41.714Z,13.07
2018-12-22T04:08:12.228Z,8.93
2018-12-22T04:10:42.143Z,18.07
2018-12-22T04:13:11.603Z,13.30
2018-12-22T04:15:41.173Z,10.37
2018-12-22T04:18:14.395Z,19.10
2018-12-22T04:20:44.197Z,14.07
2018-12-22T04:26:08.145Z,13.20
2018-12-22T04:28:38.561Z,12.87
2018-12-22T04:31:08.325Z,11.37
2018-12-22T04:33:38.175Z,15.10
2018-12-22T04:36:08.179Z,13.53
2018-12-22T04:38:38.907Z,13.33
2018-12-22T04:41:08.356Z,18.37
2018-12-22T04:43:37.997Z,16.43
2018-12-22T04:46:07.642Z,13.37
2018-12-22T04:48:37.123Z,12.20
2018-12-22T04:51:06.804Z,11.13
2018-12-22T04:53:38.759Z,14.07
2018-12-22T04:56:10.711Z,10.37
2018-12-22T04:58:40.259Z,10.93
2018-12-22T05:01:09.673Z,10.30
2018-12-22T05:03:39.374Z,14.87
2018-12-22T05:06:10.501Z,9.47
2018-12-22T05:08:41.269Z,9.93
2018-12-22T05:11:12.828Z,6.67
2018-12-22T05:13:44.483Z,9.50
2018-12-22T05:16:14.493Z,8.73
2018-12-22T05:18:46.132Z,9.93
2018-12-22T05:21:16.707Z,8.30
2018-12-22T05:23:48.143Z,6.33
2018-12-22T05:26:19.406Z,7.60
2018-12-22T05:28:49.865Z,9.03
2018-12-22T05:31:20.553Z,7.97
2018-12-22T05:33:52.123Z,8.43
2018-12-22T05:36:24.916Z,11.93
2018-12-22T05:38:59.974Z,21.10
2018-12-22T05:41:29.822Z,14.07
2018-12-22T05:44:05.178Z,12.53
2018-12-22T05:46:34.585Z,12.03
2018-12-22T05:49:04.202Z,11.53
2018-12-22T05:51:33.789Z,7.90
2018-12-22T05:54:04.311Z,10.40
2018-12-22T05:56:47.201Z,11.13
2018-12-22T05:59:22.435Z,10.63
2018-12-22T06:01:52.142Z,9.57
2018-12-22T06:04:25.540Z,11.43
2018-12-22T06:06:55.098Z,9.07
2018-12-22T06:09:25.846Z,8.20
2018-12-22T06:11:57.618Z,7.80
2018-12-22T06:14:28.725Z,11.23
2018-12-22T06:16:58.232Z,9.93
2018-12-22T06:19:27.744Z,8.00
2018-12-22T06:21:58.212Z,9.27
2018-12-22T06:24:28.408Z,9.07
2018-12-22T06:27:00.717Z,8.03
2018-12-22T06:29:31.600Z,8.33
2018-12-22T06:32:01.921Z,11.93
2018-12-22T06:34:32.171Z,8.70
2018-12-22T06:37:01.988Z,9.57
2018-12-22T06:39:32.761Z,12.03
2018-12-22T06:42:04.923Z,8.93
2018-12-22T06:44:35.957Z,8.70
2018-12-22T06:47:05.688Z,8.20
2018-12-22T06:49:35.054Z,9.60
2018-12-22T06:52:07.122Z,10.07
2018-12-22T06:54:36.502Z,7.97
2018-12-22T06:57:06.454Z,10.63
2018-12-22T06:59:36.206Z,6.70
2018-12-22T07:02:05.686Z,8.00
2018-12-22T07:04:34.914Z,8.73
2018-12-22T07:07:04.566Z,9.27
2018-12-22T07:09:34.306Z,7.23
2018-12-22T07:12:03.725Z,10.37
2018-12-22T07:14:33.131Z,9.47
2018-12-22T07:17:03.539Z,8.13
2018-12-22T07:19:33.183Z,7.07
2018-12-22T07:22:02.978Z,6.33
2018-12-22T07:24:32.239Z,7.30
2018-12-22T07:27:02.653Z,8.23
2018-12-22T07:29:32.191Z,12.00
2018-12-22T07:32:01.394Z,7.70
2018-12-22T07:34:30.591Z,8.53
2018-12-22T07:37:00.378Z,9.47
2018-12-22T07:39:29.910Z,10.10
2018-12-22T07:41:59.390Z,7.03
2018-12-22T07:44:28.998Z,8.93
2018-12-22T07:46:58.734Z,6.10
2018-12-22T07:49:29.502Z,7.10
2018-12-22T07:52:00.156Z,7.10
2018-12-22T07:54:29.806Z,8.90
2018-12-22T07:56:59.400Z,7.13
2018-12-22T07:59:28.973Z,9.40
2018-12-22T08:01:59.273Z,10.30
2018-12-22T08:04:28.511Z,6.80
2018-12-22T08:06:58.212Z,9.77
2018-12-22T08:09:27.814Z,10.40
2018-12-22T08:11:57.256Z,8.10
2018-12-22T08:14:26.958Z,5.10
2018-12-22T08:16:57.164Z,7.33
2018-12-22T08:19:26.799Z,13.63
2018-12-22T08:21:56.190Z,6.57
2018-12-22T08:24:25.812Z,5.30
2018-12-22T08:26:57.081Z,5.30
2018-12-22T08:29:26.444Z,4.40
2018-12-22T08:31:55.969Z,4.23
2018-12-22T08:34:25.341Z,5.90
2018-12-22T08:36:54.759Z,5.20
2018-12-22T08:39:23.962Z,7.00
2018-12-22T08:41:53.451Z,6.47
2018-12-22T08:44:23.966Z,8.60
2018-12-22T08:46:53.831Z,5.77
2018-12-22T08:49:24.207Z,3.90
2018-12-22T08:51:53.355Z,6.67
2018-12-22T08:54:22.726Z,4.43
2018-12-22T08:56:51.960Z,5.93
2018-12-22T08:59:21.444Z,7.23
2018-12-22T09:01:50.735Z,4.73
2018-12-22T09:04:20.512Z,4.23
2018-12-22T09:06:51.920Z,4.43
2018-12-22T09:09:21.325Z,5.60
2018-12-22T09:11:50.576Z,3.27
2018-12-22T09:14:23.822Z,5.20
2018-12-22T09:16:53.166Z,4.00
2018-12-22T09:19:23.575Z,5.70
2018-12-22T09:21:53.171Z,3.33
2018-12-22T09:24:23.627Z,3.13
2018-12-22T09:26:53.746Z,5.20
2018-12-22T09:29:23.025Z,4.33
2018-12-22T09:31:52.531Z,5.07
2018-12-22T09:34:22.178Z,6.07
2018-12-22T09:36:51.479Z,4.27
2018-12-22T09:39:20.777Z,4.90
2018-12-22T09:41:50.283Z,4.90
2018-12-22T09:44:19.587Z,3.77
2018-12-22T09:46:49.288Z,5.30
2018-12-22T09:49:18.769Z,4.27
2018-12-22T09:51:48.308Z,5.83
2018-12-22T09:54:17.567Z,4.40
2018-12-22T09:56:46.939Z,5.27
2018-12-22T09:59:17.168Z,5.00
2018-12-22T10:01:47.493Z,5.10
2018-12-22T10:04:18.078Z,6.10
2018-12-22T10:06:47.490Z,5.27
2018-12-22T10:09:17.614Z,4.87
2018-12-22T10:11:48.475Z,5.10
2018-12-22T10:14:17.576Z,5.90
2018-12-22T10:16:47.323Z,4.23
2018-12-22T10:19:17.357Z,4.13
2018-12-22T10:21:47.125Z,4.27
2018-12-22T10:24:17.417Z,4.30
2018-12-22T10:26:46.805Z,4.97
2018-12-22T10:29:16.499Z,3.60
2018-12-22T10:31:45.931Z,4.33
2018-12-22T10:34:15.958Z,4.37
2018-12-22T10:36:45.119Z,3.77
2018-12-22T10:39:14.553Z,5.03
2018-12-22T10:41:43.822Z,2.57
2018-12-22T10:44:13.221Z,2.23
2018-12-22T10:46:42.782Z,3.67
2018-12-22T10:49:12.410Z,4.03
2018-12-22T10:51:42.067Z,6.23
2018-12-22T10:54:11.428Z,2.83
2018-12-22T10:56:41.007Z,4.97
2018-12-22T10:59:10.568Z,4.70
2018-12-22T11:01:40.164Z,5.40
2018-12-22T11:04:09.943Z,6.13
2018-12-22T11:06:39.883Z,5.23
2018-12-22T11:09:09.788Z,6.80
2018-12-22T11:11:39.163Z,6.73
2018-12-22T11:14:12.352Z,5.63
2018-12-22T11:16:42.487Z,3.43
2018-12-22T11:19:12.241Z,4.37
2018-12-22T11:21:41.564Z,3.90
2018-12-22T11:24:11.240Z,4.07
2018-12-22T11:26:41.343Z,3.13
2018-12-22T11:29:10.725Z,4.73
2018-12-22T11:31:40.018Z,5.57
2018-12-22T11:34:10.441Z,5.83
2018-12-22T11:36:40.015Z,6.27
2018-12-22T11:39:09.572Z,4.77
2018-12-22T11:41:39.157Z,7.43
2018-12-22T11:44:09.602Z,6.13
2018-12-22T11:46:40.086Z,6.60
2018-12-22T11:49:09.765Z,5.83
2018-12-22T11:51:39.423Z,4.33
2018-12-22T11:54:09.475Z,4.10
2018-12-22T11:56:39.116Z,4.37
2018-12-22T11:59:10.049Z,6.57
2018-12-22T12:01:43.613Z,6.03
2018-12-22T12:04:09.607Z,5.33
2018-12-22T12:06:38.938Z,4.83
2018-12-22T12:09:08.563Z,6.20
2018-12-22T12:11:38.963Z,4.30
2018-12-22T12:14:08.229Z,7.73
2018-12-22T12:16:37.665Z,5.80
2018-12-22T12:19:09.358Z,4.57
2018-12-22T12:21:38.770Z,6.90
2018-12-22T12:24:10.157Z,3.83
2018-12-22T12:26:39.491Z,4.17
2018-12-22T12:29:08.726Z,5.50
2018-12-22T12:31:39.146Z,4.20
2018-12-22T12:34:09.371Z,6.63
2018-12-22T12:36:38.712Z,8.47
2018-12-22T12:39:08.267Z,4.93
2018-12-22T12:41:37.566Z,4.77
2018-12-22T12:44:06.713Z,6.50
2018-12-22T12:46:36.349Z,4.53
2018-12-22T12:49:05.789Z,4.80
2018-12-22T12:51:35.137Z,4.63
2018-12-22T12:54:05.040Z,5.17
2018-12-22T12:56:34.496Z,5.83
2018-12-22T12:59:03.761Z,5.23
2018-12-22T13:01:34.499Z,5.80
2018-12-22T13:04:03.832Z,5.83
2018-12-22T13:06:33.208Z,6.23
2018-12-22T13:09:03.541Z,6.80
2018-12-22T13:11:32.923Z,5.20
2018-12-22T13:14:02.420Z,6.50
2018-12-22T13:16:32.921Z,4.60
2018-12-22T13:19:02.556Z,3.90
2018-12-22T13:21:33.081Z,5.00
2018-12-22T13:24:03.366Z,4.17
2018-12-22T13:26:36.799Z,7.00
2018-12-22T13:29:02.383Z,4.23
2018-12-22T13:31:31.616Z,5.60
2018-12-22T13:34:00.922Z,6.40
2018-12-22T13:36:34.481Z,4.93
2018-12-22T13:39:01.351Z,3.90
2018-12-22T13:41:31.930Z,7.80
2018-12-22T13:44:02.370Z,6.20
2018-12-22T13:46:31.953Z,4.97
2018-12-22T13:49:01.287Z,6.80
2018-12-22T13:51:31.909Z,4.73
2018-12-22T13:54:01.334Z,4.20
2018-12-22T13:56:31.799Z,6.20
2018-12-22T13:59:01.332Z,3.63
2018-12-22T14:01:30.994Z,4.87
2018-12-22T14:04:00.568Z,3.53
2018-12-22T14:06:31.065Z,5.40
2018-12-22T14:09:00.488Z,3.63
2018-12-22T14:11:30.147Z,5.93
2018-12-22T14:13:59.441Z,6.30
2018-12-22T14:16:30.345Z,6.43
2018-12-22T14:18:59.776Z,6.50
2018-12-22T14:21:28.969Z,4.37
2018-12-22T14:24:01.369Z,5.73
2018-12-22T14:26:31.393Z,4.80
2018-12-22T14:29:00.754Z,2.67
2018-12-22T14:31:31.437Z,4.13
2018-12-22T14:34:03.193Z,3.77
2018-12-22T14:36:33.082Z,6.43
2018-12-22T14:39:02.533Z,7.53
2018-12-22T14:41:31.830Z,3.90
2018-12-22T14:44:01.465Z,5.23
2018-12-22T14:46:30.979Z,4.73
2018-12-22T14:49:00.610Z,5.83
2018-12-22T14:51:31.398Z,3.47
2018-12-22T14:54:00.483Z,6.07
2018-12-22T14:56:32.194Z,2.63
2018-12-22T14:59:01.737Z,5.17
2018-12-22T15:01:31.391Z,3.87
2018-12-22T15:04:00.795Z,3.10
2018-12-22T15:06:30.350Z,4.33
2018-12-22T15:09:01.720Z,3.40
2018-12-22T15:11:34.220Z,4.00
2018-12-22T15:14:04.708Z,4.50
2018-12-22T15:16:33.978Z,3.63
2018-12-22T15:19:04.156Z,5.87
2018-12-22T15:21:33.834Z,2.00
2018-12-22T15:24:03.140Z,2.97
2018-12-22T15:26:36.826Z,3.50
2018-12-22T15:29:07.296Z,3.73
2018-12-22T15:31:37.553Z,3.97
2018-12-22T15:34:07.756Z,2.93
2018-12-22T15:36:37.120Z,3.07
2018-12-22T15:39:07.097Z,4.87
2018-12-22T15:41:36.459Z,3.77
2018-12-22T15:44:05.743Z,4.13
2018-12-22T15:46:35.117Z,4.60
2018-12-22T15:49:04.861Z,3.27
2018-12-22T15:51:34.341Z,5.03
2018-12-22T15:54:04.064Z,3.77
2018-12-22T15:56:33.900Z,3.20
2018-12-22T15:59:03.199Z,3.37
2018-12-22T16:01:33.002Z,4.30
2018-12-22T16:04:02.320Z,3.77
2018-12-22T16:06:31.767Z,2.47
2018-12-22T16:09:01.065Z,3.50
2018-12-22T16:11:31.315Z,4.13
2018-12-22T16:14:00.983Z,3.20
2018-12-22T16:16:31.324Z,3.80
2018-12-22T16:19:00.960Z,6.00
2018-12-22T16:21:35.181Z,4.03
2018-12-22T16:24:05.769Z,5.83
2018-12-22T16:26:35.088Z,4.23
2018-12-22T16:29:06.880Z,4.23
2018-12-22T16:31:36.146Z,4.10
2018-12-22T16:34:06.497Z,3.70
2018-12-22T16:36:36.324Z,3.07
2018-12-22T16:39:05.938Z,3.50
2018-12-22T16:44:31.813Z,4.07
2018-12-22T16:47:01.114Z,2.97
2018-12-22T16:49:31.155Z,4.33
2018-12-22T16:52:00.680Z,3.80
2018-12-22T16:54:29.810Z,2.80
2018-12-22T16:57:00.230Z,3.33
2018-12-22T16:59:29.756Z,4.10
2018-12-22T17:02:00.232Z,3.83
2018-12-22T17:04:29.753Z,3.20
2018-12-22T17:06:59.851Z,4.57
2018-12-22T17:09:31.134Z,1.73
2018-12-22T17:12:00.774Z,4.03
2018-12-22T17:14:30.095Z,2.63
2018-12-22T17:16:59.728Z,2.57
2018-12-22T17:19:29.304Z,2.50
2018-12-22T17:21:59.024Z,3.00
2018-12-22T17:24:29.468Z,3.80
2018-12-22T17:26:58.917Z,2.53
2018-12-22T17:29:28.449Z,3.03
2018-12-22T17:31:59.340Z,2.50
2018-12-22T17:34:29.725Z,4.10
2018-12-22T17:36:59.275Z,2.93
2018-12-22T17:39:36.611Z,1.93
2018-12-22T17:42:00.216Z,3.57
2018-12-22T17:44:29.523Z,4.93
2018-12-22T17:46:58.886Z,2.43
2018-12-22T17:49:28.068Z,4.10
2018-12-22T17:51:57.460Z,3.87
2018-12-22T17:54:26.760Z,2.57
2018-12-22T17:56:56.146Z,2.60
2018-12-22T17:59:26.107Z,3.90
2018-12-22T18:01:55.719Z,2.87
2018-12-22T18:04:26.341Z,3.23
2018-12-22T18:06:56.519Z,3.87
2018-12-22T18:09:25.969Z,5.37
2018-12-22T18:11:56.252Z,2.83
2018-12-22T18:14:25.371Z,3.80
2018-12-22T18:16:55.635Z,2.80
2018-12-22T18:19:24.981Z,2.13
2018-12-22T18:21:55.416Z,2.73
2018-12-22T18:24:24.607Z,3.83
2018-12-22T18:26:54.121Z,1.77
2018-12-22T18:29:23.369Z,3.47
2018-12-22T18:31:52.725Z,1.73
2018-12-22T18:34:22.345Z,1.57
2018-12-22T18:36:51.608Z,1.97
2018-12-22T18:39:22.015Z,2.27
2018-12-22T18:41:51.481Z,1.73
2018-12-22T18:44:20.913Z,1.87
2018-12-22T18:46:51.103Z,3.53
2018-12-22T18:49:20.672Z,3.67
2018-12-22T18:51:51.008Z,3.83
2018-12-22T18:54:22.392Z,4.00
2018-12-22T18:56:52.026Z,1.93
2018-12-22T18:59:23.073Z,3.83
2018-12-22T19:01:54.428Z,3.30
2018-12-22T19:04:25.171Z,3.30
2018-12-22T19:06:55.108Z,2.90
2018-12-22T19:09:25.340Z,3.03
2018-12-22T19:11:56.614Z,2.97
2018-12-22T19:14:26.434Z,2.20
2018-12-22T19:16:55.946Z,1.60
2018-12-22T19:19:27.106Z,2.60
2018-12-22T19:21:56.906Z,2.70
2018-12-22T19:24:26.425Z,2.63
2018-12-22T19:26:57.820Z,2.83
2018-12-22T19:29:27.616Z,3.50
2018-12-22T19:31:58.150Z,2.47
2018-12-22T19:34:28.505Z,2.37
2018-12-22T19:37:00.029Z,1.87
2018-12-22T19:39:31.198Z,1.10
2018-12-22T19:42:03.952Z,1.93
2018-12-22T19:44:35.908Z,1.60
2018-12-22T19:47:05.561Z,2.30
2018-12-22T19:49:36.097Z,2.57
2018-12-22T19:52:05.365Z,1.83
2018-12-22T19:54:35.809Z,1.17
2018-12-22T19:57:07.123Z,1.83
2018-12-22T19:59:38.667Z,2.97
2018-12-22T20:02:06.884Z,2.20
2018-12-22T20:04:37.279Z,1.10
2018-12-22T20:07:06.751Z,3.37
2018-12-22T20:09:36.330Z,2.23
2018-12-22T20:12:05.838Z,2.40
2018-12-22T20:14:35.320Z,2.90
2018-12-22T20:17:15.875Z,1.77
2018-12-22T20:19:45.194Z,1.10
2018-12-22T20:22:14.764Z,1.37
2018-12-22T20:24:45.675Z,1.53
2018-12-22T20:27:15.291Z,2.93
2018-12-22T20:29:45.379Z,2.90
2018-12-22T20:32:15.483Z,3.10
2018-12-22T20:34:45.163Z,2.17
2018-12-22T20:37:14.376Z,1.80
2018-12-22T20:39:44.502Z,3.40
2018-12-22T20:42:13.838Z,2.43
2018-12-22T20:44:43.189Z,3.53
2018-12-22T20:47:12.888Z,3.67
2018-12-22T20:49:42.397Z,2.47
2018-12-22T20:52:12.270Z,3.57
2018-12-22T20:54:42.119Z,1.90
2018-12-22T20:57:12.341Z,2.23
2018-12-22T20:59:41.499Z,2.17
2018-12-22T21:02:11.688Z,2.97
2018-12-22T21:04:41.130Z,3.07
2018-12-22T21:07:10.700Z,3.57
2018-12-22T21:09:41.146Z,3.90
2018-12-22T21:12:11.579Z,3.53
2018-12-22T21:14:41.287Z,3.57
2018-12-22T21:17:10.914Z,2.63
2018-12-22T21:19:40.302Z,2.20
2018-12-22T21:22:10.842Z,3.40
2018-12-22T21:24:41.357Z,2.47
2018-12-22T21:27:12.011Z,2.07
2018-12-22T21:29:41.537Z,1.70
2018-12-22T21:32:10.842Z,2.63
2018-12-22T21:34:42.331Z,2.33
2018-12-22T21:37:12.992Z,3.20
2018-12-22T21:39:42.426Z,4.00
2018-12-22T21:42:12.080Z,2.27
2018-12-22T21:44:41.810Z,4.47
2018-12-22T21:47:11.152Z,2.50
2018-12-22T21:49:41.058Z,3.67
2018-12-22T21:52:11.284Z,1.43
2018-12-22T21:54:40.606Z,1.93
2018-12-22T21:57:09.836Z,1.57
2018-12-22T21:59:39.427Z,1.37
2018-12-22T22:02:10.117Z,2.57
2018-12-22T22:04:40.806Z,1.30
2018-12-22T22:07:10.352Z,1.43
2018-12-22T22:09:40.126Z,2.67
2018-12-22T22:12:11.421Z,4.60
2018-12-22T22:14:40.783Z,2.83
2018-12-22T22:17:24.412Z,2.60
2018-12-22T22:19:54.771Z,2.10
2018-12-22T22:22:37.077Z,2.93
2018-12-22T22:25:06.398Z,2.40
2018-12-22T22:27:35.840Z,2.87
2018-12-22T22:30:06.266Z,2.13
2018-12-22T22:32:37.036Z,1.70
2018-12-22T22:35:06.218Z,2.27
2018-12-22T22:37:35.224Z,3.37
2018-12-22T22:40:04.585Z,4.10
2018-12-22T22:42:34.557Z,3.07
2018-12-22T22:45:03.993Z,4.50
2018-12-22T22:47:33.576Z,2.93
2018-12-22T22:50:02.972Z,2.27
2018-12-22T22:52:32.325Z,1.33
2018-12-22T22:55:03.019Z,2.00
2018-12-22T22:57:32.803Z,1.67
2018-12-22T23:00:03.087Z,2.43
2018-12-22T23:02:32.334Z,2.50
2018-12-22T23:05:02.119Z,2.70
2018-12-22T23:07:31.754Z,2.70
2018-12-22T23:10:02.353Z,2.23
2018-12-22T23:12:32.683Z,2.57
2018-12-22T23:15:02.137Z,0.93
2018-12-22T23:17:32.728Z,1.10
2018-12-22T23:20:02.025Z,2.30
2018-12-22T23:22:31.498Z,2.03
2018-12-22T23:25:01.034Z,3.00
2018-12-22T23:27:31.172Z,1.93
2018-12-22T23:30:01.799Z,4.57
2018-12-22T23:32:31.399Z,4.27
2018-12-22T23:35:03.174Z,3.40
2018-12-22T23:37:32.039Z,3.03
2018-12-22T23:40:01.596Z,1.57
2018-12-22T23:42:31.226Z,2.20
2018-12-22T23:45:01.420Z,2.30
2018-12-22T23:47:31.814Z,2.63
2018-12-22T23:50:01.411Z,1.13
2018-12-22T23:52:31.734Z,2.33
2018-12-22T23:55:01.436Z,2.23
2018-12-22T23:57:32.014Z,1.20
